Time;durP1;ratioP1;P1;durP2;ratioP2;P2;SDS_P1;SDS_P2;PMS_P1;PMS_P2;Temp;Humidity;BMP_temperature;BMP_pressure;BME280_temperature;BME280_humidity;BME280_pressure;Samples;Min_cycle;Max_cycle;Signal;HPM_P1;HPM_P2
2021/09/30 00:00:13;;;;;;;1.33;1.02;;;17.40;64.20;;;;;;5072998;28;20024;-64
2021/09/30 00:02:39;;;;;;;0.75;0.63;;;17.40;64.10;;;;;;5073597;28;20562;-64
2021/09/30 00:05:06;;;;;;;1.38;0.80;;;17.40;64.20;;;;;;5073480;28;20184;-64
2021/09/30 00:07:32;;;;;;;2.05;0.63;;;17.40;64.20;;;;;;5056477;28;20100;-64
2021/09/30 00:09:58;;;;;;;4.57;0.93;;;17.40;64.30;;;;;;5056442;28;20442;-65
2021/09/30 00:12:30;;;;;;;2.00;0.80;;;17.50;64.30;;;;;;5059968;28;20059;-64
2021/09/30 00:15:07;;;;;;;1.10;0.73;;;17.50;64.20;;;;;;5074424;28;20028;-64
2021/09/30 00:39:37;;;;;;;4.85;1.05;;;17.60;63.80;;;;;;5054227;28;19913;-64
2021/09/30 02:59:43;;;;;;;0.70;0.50;;;16.90;61.00;;;;;;5056255;28;20035;-63
2021/09/30 03:02:10;;;;;;;1.55;0.65;;;16.90;61.00;;;;;;5068278;28;20417;-63
2021/09/30 03:04:38;;;;;;;1.52;0.65;;;16.90;61.10;;;;;;5054801;28;20021;-63
2021/09/30 03:07:07;;;;;;;8.27;0.77;;;16.90;61.20;;;;;;5050941;28;20033;-63
2021/09/30 03:09:41;;;;;;;2.50;0.50;;;16.90;61.20;;;;;;5055529;28;20026;-63
2021/09/30 03:12:24;;;;;;;0.50;0.40;;;16.90;61.30;;;;;;5069327;28;20032;-63
2021/09/30 03:15:05;;;;;;;0.80;0.50;;;16.90;61.30;;;;;;5050604;28;20033;-63
2021/09/30 03:17:44;;;;;;;1.15;0.40;;;16.90;61.20;;;;;;5050686;28;20032;-63
2021/09/30 03:20:29;;;;;;;1.98;0.70;;;16.80;61.10;;;;;;5050509;28;20033;-63
2021/09/30 03:23:09;;;;;;;4.13;0.65;;;16.80;61.20;;;;;;5050629;28;20021;-63
2021/09/30 03:25:37;;;;;;;0.77;0.35;;;16.80;61.30;;;;;;5050538;28;20044;-63
2021/09/30 03:28:04;;;;;;;1.20;0.52;;;16.80;61.30;;;;;;5051117;28;20032;-63
2021/09/30 03:30:31;;;;;;;1.75;0.60;;;16.80;61.40;;;;;;5054204;28;20056;-64
2021/09/30 03:33:01;;;;;;;0.70;0.50;;;16.80;61.50;;;;;;5054352;28;20106;-64
2021/09/30 03:35:27;;;;;;;1.80;0.60;;;16.70;61.40;;;;;;5054647;28;20036;-64
2021/09/30 03:37:53;;;;;;;0.55;0.30;;;16.70;61.40;;;;;;5059488;28;20374;-64
2021/09/30 03:40:19;;;;;;;2.08;0.55;;;16.70;61.40;;;;;;5073921;28;20032;-64
2021/09/30 03:42:45;;;;;;;0.95;0.52;;;16.70;61.60;;;;;;5074386;28;20470;-63
2021/09/30 03:45:10;;;;;;;4.55;0.70;;;16.70;61.70;;;;;;5074286;28;20024;-64
2021/09/30 03:47:37;;;;;;;4.00;0.70;;;16.70;61.50;;;;;;5074327;28;20039;-64
2021/09/30 03:50:06;;;;;;;0.98;0.57;;;16.70;61.50;;;;;;5071947;28;20028;-63
2021/09/30 03:55:41;;;;;;;1.20;0.55;;;16.70;61.30;;;;;;5073751;28;20040;-63
2021/09/30 04:00:51;;;;;;;0.40;0.40;;;16.70;61.40;;;;;;5074154;28;20089;-64
2021/09/30 04:03:17;;;;;;;0.63;0.40;;;16.70;61.30;;;;;;5061703;28;20052;-64
2021/09/30 04:05:43;;;;;;;3.60;0.90;;;16.70;61.30;;;;;;5054076;28;20074;-64
2021/09/30 04:08:09;;;;;;;2.35;0.60;;;16.70;61.20;;;;;;5053849;28;20483;-64
2021/09/30 04:10:34;;;;;;;2.38;0.57;;;16.70;61.20;;;;;;5053844;28;20102;-64
2021/09/30 04:13:00;;;;;;;1.23;0.68;;;16.70;61.10;;;;;;5068456;28;20054;-64
2021/09/30 04:15:26;;;;;;;0.60;0.40;;;16.70;61.10;;;;;;5065546;28;20033;-63
2021/09/30 04:17:52;;;;;;;1.20;0.45;;;16.70;61.10;;;;;;5053481;28;20151;-63
2021/09/30 04:20:18;;;;;;;0.98;0.70;;;16.70;61.00;;;;;;5073182;28;20028;-63
2021/09/30 04:22:44;;;;;;;1.45;0.70;;;16.70;61.20;;;;;;5073627;28;20028;-63
2021/09/30 04:25:11;;;;;;;1.30;0.47;;;16.70;61.20;;;;;;5073744;28;20032;-64
2021/09/30 04:27:38;;;;;;;3.83;0.60;;;16.70;61.20;;;;;;5073484;28;20031;-63
2021/09/30 04:30:05;;;;;;;0.50;0.43;;;16.70;61.20;;;;;;5072910;28;20032;-63
2021/09/30 04:32:31;;;;;;;2.88;0.80;;;16.70;61.20;;;;;;5073187;28;20032;-64
2021/09/30 04:34:57;;;;;;;4.22;0.77;;;16.70;61.10;;;;;;5058689;28;20033;-64
2021/09/30 04:37:25;;;;;;;2.25;0.73;;;16.70;60.90;;;;;;5055822;28;20039;-64
2021/09/30 04:39:51;;;;;;;0.80;0.57;;;16.70;60.90;;;;;;5062261;28;20048;-63
2021/09/30 04:42:17;;;;;;;6.13;0.63;;;16.70;61.00;;;;;;5053183;28;20017;-64
2021/09/30 04:44:42;;;;;;;1.95;0.88;;;16.70;61.10;;;;;;5052842;28;20029;-63
2021/09/30 04:47:08;;;;;;;1.35;0.60;;;16.70;61.10;;;;;;5052861;28;20029;-63
2021/09/30 04:49:34;;;;;;;9.43;0.90;;;16.70;61.00;;;;;;5063498;28;20029;-63
2021/09/30 04:52:00;;;;;;;4.00;1.10;;;16.70;61.00;;;;;;5073104;28;20028;-63
2021/09/30 04:54:25;;;;;;;7.45;1.75;;;16.70;61.10;;;;;;5064536;28;20036;-63
2021/09/30 04:56:51;;;;;;;1.00;0.80;;;16.70;61.10;;;;;;5052383;28;20538;-63
2021/09/30 04:59:17;;;;;;;1.17;0.60;;;16.60;61.20;;;;;;5052258;28;20269;-63
2021/09/30 05:01:43;;;;;;;2.63;0.60;;;16.60;61.20;;;;;;5051260;28;20432;-63
2021/09/30 05:04:08;;;;;;;2.47;0.65;;;16.60;61.30;;;;;;5055916;28;20089;-63
2021/09/30 05:06:34;;;;;;;1.98;0.70;;;16.60;61.50;;;;;;5062212;28;20025;-64
2021/09/30 05:09:01;;;;;;;2.08;0.90;;;16.60;61.50;;;;;;5052658;28;20534;-63
2021/09/30 05:11:39;;;;;;;1.88;0.93;;;16.50;61.50;;;;;;5052714;28;20036;-63
2021/09/30 05:14:05;;;;;;;8.32;1.40;;;16.50;61.70;;;;;;5052589;28;20035;-63
2021/09/30 05:16:31;;;;;;;1.17;0.73;;;16.50;61.70;;;;;;5065521;28;20132;-63
2021/09/30 05:18:58;;;;;;;3.03;0.90;;;16.50;61.70;;;;;;5071941;28;20020;-63
2021/09/30 05:21:24;;;;;;;2.63;1.20;;;16.50;61.80;;;;;;5072030;28;20099;-63
2021/09/30 05:23:51;;;;;;;1.98;1.38;;;16.50;61.80;;;;;;5071853;28;20028;-63
2021/09/30 05:26:17;;;;;;;1.88;0.98;;;16.50;61.90;;;;;;5072352;28;20037;-63
2021/09/30 05:28:43;;;;;;;7.32;1.27;;;16.40;62.00;;;;;;5059593;28;20025;-63
2021/09/30 05:31:09;;;;;;;2.38;1.05;;;16.40;62.00;;;;;;5051935;28;20044;-63
2021/09/30 05:33:35;;;;;;;4.32;0.93;;;16.40;62.10;;;;;;5052006;28;20028;-63
2021/09/30 05:36:02;;;;;;;1.38;0.88;;;16.40;62.00;;;;;;5051995;28;20395;-63
2021/09/30 05:38:29;;;;;;;2.13;0.82;;;16.30;62.10;;;;;;5052099;28;20013;-63
2021/09/30 05:40:55;;;;;;;4.07;0.88;;;16.30;62.00;;;;;;5067842;28;20498;-63
2021/09/30 05:43:28;;;;;;;3.25;1.10;;;16.20;61.90;;;;;;5072089;28;20025;-63
2021/09/30 05:45:58;;;;;;;2.17;0.90;;;16.20;62.10;;;;;;5054233;28;20394;-63
2021/09/30 05:48:25;;;;;;;2.85;0.82;;;16.20;62.20;;;;;;5051896;28;20509;-63
2021/09/30 05:50:52;;;;;;;2.05;0.80;;;16.20;62.20;;;;;;5051468;28;20429;-63
2021/09/30 05:53:18;;;;;;;1.45;0.77;;;16.10;62.20;;;;;;5051959;28;20048;-63
2021/09/30 05:55:46;;;;;;;3.35;0.80;;;16.10;62.30;;;;;;5051394;28;20035;-64
2021/09/30 05:58:12;;;;;;;2.30;0.95;;;16.10;62.50;;;;;;5070393;28;20060;-63
2021/09/30 06:09:40;;;;;;;1.42;0.60;;;16.00;62.60;;;;;;5049993;28;20033;-63
2021/09/30 06:12:21;;;;;;;2.65;0.70;;;16.00;62.50;;;;;;5051137;28;20068;-63
2021/09/30 06:14:45;;;;;;;5.05;0.80;;;15.90;62.50;;;;;;5051321;28;20037;-63
2021/09/30 06:17:11;;;;;;;3.67;0.70;;;15.90;62.60;;;;;;5066245;28;20093;-63
2021/09/30 06:19:37;;;;;;;3.72;1.00;;;15.90;62.60;;;;;;5069733;28;20056;-63
2021/09/30 06:22:07;;;;;;;1.13;0.80;;;15.90;62.70;;;;;;5069786;28;20055;-63
2021/09/30 06:24:34;;;;;;;1.65;0.70;;;15.90;62.80;;;;;;5069311;28;20070;-63
2021/09/30 06:27:01;;;;;;;2.35;0.68;;;15.90;63.00;;;;;;5071541;28;20017;-63
2021/09/30 06:29:27;;;;;;;2.97;0.70;;;15.90;63.10;;;;;;5068949;28;20081;-63
2021/09/30 06:31:53;;;;;;;2.65;0.90;;;15.90;63.10;;;;;;5071304;28;20020;-64
2021/09/30 06:34:19;;;;;;;9.23;1.10;;;16.00;63.20;;;;;;5062037;28;20033;-62
2021/09/30 06:36:44;;;;;;;1.25;0.80;;;16.00;63.10;;;;;;5050918;28;20514;-62
2021/09/30 06:39:11;;;;;;;2.25;1.10;;;16.00;63.10;;;;;;5051458;28;20050;-62
2021/09/30 06:41:36;;;;;;;1.55;0.85;;;16.10;63.20;;;;;;5051492;28;20406;-62
2021/09/30 06:44:02;;;;;;;11.73;1.20;;;16.10;63.00;;;;;;5062994;28;20047;-63
2021/09/30 06:46:28;;;;;;;2.10;0.90;;;16.20;63.10;;;;;;5070402;28;20037;-62
2021/09/30 06:48:54;;;;;;;8.27;1.60;;;16.20;63.00;;;;;;5071112;28;20028;-61
2021/09/30 06:51:20;;;;;;;3.67;0.93;;;16.30;62.80;;;;;;5070753;28;20032;-63
2021/09/30 06:53:47;;;;;;;2.42;0.90;;;16.30;62.60;;;;;;5071136;28;20099;-63
2021/09/30 06:56:15;;;;;;;2.95;0.98;;;16.40;62.60;;;;;;5054474;28;20090;-63
2021/09/30 06:58:45;;;;;;;1.58;0.90;;;16.50;62.70;;;;;;5050749;28;20097;-64
2021/09/30 07:01:15;;;;;;;7.80;1.40;;;16.50;62.30;;;;;;5059213;28;20028;-63
2021/09/30 07:03:41;;;;;;;2.83;1.00;;;16.60;61.80;;;;;;5071992;28;20071;-63
2021/09/30 07:06:07;;;;;;;5.15;1.30;;;16.70;61.50;;;;;;5068185;28;20053;-63
2021/09/30 07:08:32;;;;;;;2.13;1.00;;;16.70;60.50;;;;;;5055034;28;20028;-63
2021/09/30 07:10:58;;;;;;;6.50;1.15;;;16.80;60.40;;;;;;5054905;28;20039;-63
2021/09/30 07:13:25;;;;;;;1.92;0.95;;;16.80;60.20;;;;;;5054837;28;20040;-64
2021/09/30 07:15:51;;;;;;;2.28;1.25;;;16.90;59.50;;;;;;5054738;28;20028;-63
2021/09/30 07:18:20;;;;;;;4.50;1.13;;;16.90;58.90;;;;;;5074618;28;20500;-63
2021/09/30 07:20:47;;;;;;;5.72;1.20;;;17.00;58.60;;;;;;5071320;28;20024;-63
2021/09/30 07:23:13;;;;;;;3.60;1.42;;;17.00;58.00;;;;;;5061358;28;20036;-63
2021/09/30 07:25:39;;;;;;;3.53;1.30;;;17.10;58.20;;;;;;5054571;28;20394;-63
2021/09/30 07:28:05;;;;;;;6.90;1.50;;;17.20;57.90;;;;;;5054500;28;20025;-63
2021/09/30 07:30:33;;;;;;;9.88;1.70;;;17.30;57.70;;;;;;5073626;28;20040;-64
2021/09/30 07:33:00;;;;;;;4.13;1.05;;;17.50;57.60;;;;;;5074239;28;20405;-63
2021/09/30 07:35:26;;;;;;;13.75;2.15;;;17.60;57.00;;;;;;5055987;28;20080;-64
2021/09/30 07:37:53;;;;;;;4.75;1.42;;;17.70;57.00;;;;;;5054357;28;20036;-64
2021/09/30 07:40:20;;;;;;;3.95;1.40;;;17.80;56.40;;;;;;5054158;28;20488;-62
2021/09/30 07:42:46;;;;;;;3.75;1.30;;;17.80;55.80;;;;;;5054073;28;20021;-63
2021/09/30 07:45:11;;;;;;;3.95;1.48;;;17.90;54.70;;;;;;5057564;28;20343;-63
2021/09/30 07:47:38;;;;;;;3.95;1.00;;;17.80;54.40;;;;;;5052847;28;20083;-62
2021/09/30 07:50:04;;;;;;;4.95;1.27;;;17.90;54.40;;;;;;5054074;28;20040;-63
2021/09/30 07:52:31;;;;;;;2.40;1.10;;;17.90;54.90;;;;;;5054065;28;20086;-63
2021/09/30 07:54:57;;;;;;;4.57;1.17;;;17.90;54.10;;;;;;5053916;28;20029;-63
2021/09/30 07:57:22;;;;;;;7.97;1.30;;;17.90;53.60;;;;;;5054006;28;20017;-63
2021/09/30 07:59:48;;;;;;;1.27;1.05;;;17.90;53.80;;;;;;5053969;28;20389;-63
2021/09/30 08:02:14;;;;;;;3.85;1.20;;;17.90;53.30;;;;;;5054070;28;20049;-63
2021/09/30 08:04:40;;;;;;;3.15;0.85;;;17.90;52.90;;;;;;5053776;28;20029;-63
2021/09/30 08:07:08;;;;;;;3.67;0.98;;;17.90;53.30;;;;;;5056705;28;20052;-62
2021/09/30 08:09:34;;;;;;;12.15;1.50;;;17.90;52.90;;;;;;5057456;28;20443;-64
2021/09/30 08:12:01;;;;;;;1.75;1.13;;;17.90;53.40;;;;;;5069500;28;20025;-63
2021/09/30 08:14:27;;;;;;;2.92;0.98;;;17.90;52.60;;;;;;5056915;28;20557;-64
2021/09/30 08:16:53;;;;;;;2.40;1.00;;;17.90;52.20;;;;;;5054154;28;20033;-63
2021/09/30 08:19:18;;;;;;;4.00;1.45;;;18.00;52.50;;;;;;5054313;28;20095;-62
2021/09/30 08:21:44;;;;;;;4.28;1.20;;;18.00;52.30;;;;;;5054317;28;20096;-62
2021/09/30 08:24:17;;;;;;;2.85;0.95;;;18.10;52.00;;;;;;5054366;28;20032;-63
2021/09/30 08:26:45;;;;;;;1.25;0.82;;;18.20;52.70;;;;;;5054203;28;20029;-63
2021/09/30 08:29:11;;;;;;;2.13;1.15;;;18.40;51.40;;;;;;5061499;28;20025;-63
2021/09/30 08:31:37;;;;;;;1.73;0.85;;;18.40;51.00;;;;;;5070320;28;20021;-62
2021/09/30 08:34:03;;;;;;;4.28;1.40;;;18.50;50.10;;;;;;5073947;28;20104;-63
2021/09/30 08:36:31;;;;;;;2.00;0.85;;;18.50;49.80;;;;;;5074043;28;20028;-63
2021/09/30 08:38:57;;;;;;;2.88;1.30;;;18.50;49.70;;;;;;5073907;28;20549;-64
2021/09/30 08:41:24;;;;;;;3.47;1.45;;;18.50;50.30;;;;;;5073667;28;20474;-63
2021/09/30 08:43:50;;;;;;;2.83;1.13;;;18.50;49.70;;;;;;5073725;28;20024;-63
2021/09/30 08:46:17;;;;;;;2.33;1.10;;;18.50;50.00;;;;;;5073812;28;20063;-62
2021/09/30 08:48:43;;;;;;;3.50;1.30;;;18.50;49.90;;;;;;5073970;28;20043;-63
2021/09/30 08:51:10;;;;;;;3.13;1.15;;;18.50;49.30;;;;;;5073850;28;20037;-63
2021/09/30 08:53:36;;;;;;;8.45;1.23;;;18.50;49.90;;;;;;5073902;28;20036;-63
2021/09/30 08:56:08;;;;;;;1.95;0.95;;;18.50;49.90;;;;;;5056729;28;20029;-63
2021/09/30 08:58:35;;;;;;;6.15;1.52;;;18.50;49.20;;;;;;5068250;28;20115;-63
2021/09/30 09:01:02;;;;;;;3.55;1.35;;;18.50;48.90;;;;;;5066654;28;20014;-63
2021/09/30 09:03:43;;;;;;;2.15;1.13;;;18.50;49.70;;;;;;5065819;28;20494;-63
2021/09/30 09:06:27;;;;;;;2.88;1.30;;;18.50;50.10;;;;;;5067873;28;20031;-63
2021/09/30 09:09:17;;;;;;;6.22;1.42;;;18.50;49.20;;;;;;5064682;28;20039;-63
2021/09/30 09:11:43;;;;;;;2.17;1.20;;;18.60;49.10;;;;;;5053540;28;20057;-64
2021/09/30 09:14:10;;;;;;;5.53;1.25;;;18.60;49.30;;;;;;5056468;28;20079;-64
2021/09/30 09:16:36;;;;;;;8.05;1.38;;;18.60;48.60;;;;;;5053318;28;20056;-64
2021/09/30 09:19:02;;;;;;;6.10;1.20;;;18.60;47.80;;;;;;5053073;28;20052;-63
2021/09/30 09:21:28;;;;;;;3.25;0.95;;;18.60;48.50;;;;;;5064415;28;20025;-64
2021/09/30 09:23:58;;;;;;;2.17;1.00;;;18.60;47.70;;;;;;5052776;28;20104;-63
2021/09/30 09:26:31;;;;;;;5.80;0.90;;;18.60;47.30;;;;;;5062601;28;20548;-64
2021/09/30 09:29:07;;;;;;;4.22;1.00;;;18.60;47.40;;;;;;5068580;28;20031;-64
2021/09/30 09:31:35;;;;;;;5.18;1.27;;;18.70;47.00;;;;;;5069130;28;20029;-63
2021/09/30 09:34:32;;;;;;;3.03;1.08;;;18.70;46.70;;;;;;5063139;28;20029;-63
2021/09/30 09:37:32;;;;;;;3.90;1.20;;;18.70;47.00;;;;;;5066401;28;20561;-63
2021/09/30 09:39:59;;;;;;;1.83;0.70;;;18.80;46.90;;;;;;5055236;28;20423;-64
2021/09/30 09:42:31;;;;;;;4.45;1.00;;;18.80;46.70;;;;;;5051404;28;20017;-63
2021/09/30 09:45:00;;;;;;;3.63;0.95;;;18.80;46.10;;;;;;5052786;28;20025;-63
2021/09/30 09:47:32;;;;;;;3.88;0.90;;;18.90;46.50;;;;;;5052839;28;20025;-64
2021/09/30 09:50:27;;;;;;;2.97;1.05;;;18.90;45.80;;;;;;5070396;28;20021;-64
2021/09/30 09:52:59;;;;;;;3.78;0.90;;;19.00;46.60;;;;;;5070302;28;20412;-63
2021/09/30 09:55:27;;;;;;;6.18;1.00;;;19.00;46.10;;;;;;5053798;28;20090;-63
2021/09/30 09:58:14;;;;;;;3.40;1.27;;;19.20;45.70;;;;;;5033928;28;20033;-64
2021/09/30 10:00:42;;;;;;;5.78;1.40;;;19.30;45.90;;;;;;5050443;28;20033;-63
2021/09/30 10:03:10;;;;;;;3.63;1.00;;;19.30;45.30;;;;;;5056957;28;20123;-62
2021/09/30 10:05:36;;;;;;;4.40;1.05;;;19.50;45.50;;;;;;5056470;28;20024;-62
2021/09/30 10:08:03;;;;;;;12.00;1.20;;;19.60;45.30;;;;;;5070237;28;20131;-63
2021/09/30 10:10:29;;;;;;;2.15;0.85;;;19.70;44.70;;;;;;5070030;28;20041;-63
2021/09/30 10:12:56;;;;;;;3.45;0.88;;;19.70;44.00;;;;;;5069984;28;20194;-63
2021/09/30 10:15:23;;;;;;;2.63;0.95;;;19.80;43.60;;;;;;5054001;28;20037;-63
2021/09/30 10:17:49;;;;;;;1.88;1.35;;;19.70;43.00;;;;;;5055901;28;20445;-63
2021/09/30 10:20:15;;;;;;;1.35;0.60;;;19.70;43.10;;;;;;5069656;28;20039;-63
2021/09/30 10:22:41;;;;;;;3.08;0.70;;;19.70;43.10;;;;;;5070010;28;20108;-63
2021/09/30 10:25:08;;;;;;;3.55;0.85;;;19.80;43.90;;;;;;5056802;28;20032;-64
2021/09/30 10:27:36;;;;;;;2.55;0.80;;;19.70;43.00;;;;;;5050033;28;20434;-64
2021/09/30 10:30:03;;;;;;;1.88;0.57;;;19.70;44.00;;;;;;5047177;28;20041;-64
2021/09/30 10:32:29;;;;;;;7.13;1.10;;;19.80;43.60;;;;;;5052052;28;20040;-64
2021/09/30 10:35:01;;;;;;;5.60;0.90;;;19.80;43.00;;;;;;5051786;28;20451;-64
2021/09/30 10:37:32;;;;;;;3.22;1.00;;;19.80;43.10;;;;;;5051974;28;20039;-63
2021/09/30 10:40:20;;;;;;;1.30;0.70;;;19.90;43.10;;;;;;5051939;28;20100;-64
2021/09/30 10:42:57;;;;;;;4.63;1.80;;;20.00;43.50;;;;;;5050496;28;20439;-67
2021/09/30 10:45:40;;;;;;;7.80;3.85;;;20.10;44.10;;;;;;5053261;28;20043;-67
2021/09/30 10:48:07;;;;;;;3.55;1.40;;;20.20;46.50;;;;;;5071215;28;20029;-67
2021/09/30 10:51:12;;;;;;;7.60;3.00;;;20.30;44.40;;;;;;5068702;28;20079;-67
2021/09/30 10:53:47;;;;;;;5.65;2.42;;;20.40;45.80;;;;;;5056550;28;20037;-67
2021/09/30 10:56:29;;;;;;;3.30;1.40;;;20.60;46.30;;;;;;5054653;28;20033;-67
2021/09/30 10:58:58;;;;;;;2.17;0.70;;;20.70;42.60;;;;;;5078949;28;20052;-67
2021/09/30 11:01:24;;;;;;;1.60;0.98;;;20.70;39.40;;;;;;5071211;28;20020;-67
2021/09/30 11:03:58;;;;;;;4.60;1.20;;;20.80;39.20;;;;;;5073840;28;20082;-67
2021/09/30 11:06:25;;;;;;;2.97;1.30;;;20.80;39.40;;;;;;5058777;28;20057;-67
2021/09/30 11:09:26;;;;;;;2.50;0.77;;;20.90;41.40;;;;;;5060805;28;20072;-67
2021/09/30 11:12:10;;;;;;;1.27;0.70;;;21.00;41.00;;;;;;5059155;28;20029;-68
2021/09/30 11:14:56;;;;;;;1.85;0.90;;;21.10;41.30;;;;;;5055858;28;20132;-67
2021/09/30 11:17:48;;;;;;;2.33;0.90;;;21.10;41.10;;;;;;5048608;28;20119;-65
2021/09/30 11:20:34;;;;;;;3.03;1.10;;;21.20;41.90;;;;;;5054682;28;20215;-65
2021/09/30 11:23:00;;;;;;;2.40;0.77;;;21.30;41.60;;;;;;5048411;28;20071;-67
2021/09/30 11:26:07;;;;;;;4.28;0.77;;;21.40;40.80;;;;;;5048764;28;20066;-67
2021/09/30 11:28:33;;;;;;;1.45;0.80;;;21.40;41.70;;;;;;5040390;28;20040;-67
2021/09/30 11:31:24;;;;;;;1.83;0.70;;;21.50;40.30;;;;;;5048086;28;20049;-67
2021/09/30 11:33:52;;;;;;;3.35;0.77;;;21.60;40.10;;;;;;5047708;28;20037;-67
2021/09/30 11:36:18;;;;;;;3.38;0.60;;;21.60;39.10;;;;;;5048429;28;20040;-67
2021/09/30 11:38:44;;;;;;;1.15;0.55;;;21.50;38.50;;;;;;5048082;28;20112;-68
2021/09/30 11:41:10;;;;;;;1.58;0.80;;;21.40;38.50;;;;;;5048104;28;20057;-67
2021/09/30 11:43:36;;;;;;;7.82;1.30;;;21.30;37.90;;;;;;5048047;28;20068;-67
2021/09/30 11:46:28;;;;;;;4.40;1.27;;;21.20;39.70;;;;;;5049577;28;20116;-67
2021/09/30 11:48:57;;;;;;;2.80;0.95;;;21.10;39.10;;;;;;5050510;28;20501;-67
2021/09/30 11:51:41;;;;;;;7.35;0.85;;;21.10;39.30;;;;;;5055295;28;20043;-67
2021/09/30 11:54:11;;;;;;;1.90;0.60;;;21.00;40.30;;;;;;5067722;28;20029;-67
2021/09/30 11:56:49;;;;;;;2.38;0.85;;;21.00;40.90;;;;;;5065575;28;20103;-67
2021/09/30 11:59:18;;;;;;;3.72;0.90;;;21.00;40.50;;;;;;5053864;28;20037;-67
2021/09/30 12:01:46;;;;;;;2.70;0.80;;;21.00;39.80;;;;;;5067219;28;20497;-67
2021/09/30 12:07:24;;;;;;;3.25;0.90;;;20.90;39.90;;;;;;5062113;28;20025;-67
2021/09/30 12:09:55;;;;;;;3.17;0.70;;;20.90;39.20;;;;;;5065055;28;20048;-67
2021/09/30 12:12:35;;;;;;;2.55;0.88;;;21.00;39.50;;;;;;5057423;28;20116;-67
2021/09/30 12:15:05;;;;;;;4.75;0.90;;;20.90;39.10;;;;;;5053407;28;20032;-67
2021/09/30 12:17:33;;;;;;;3.45;0.90;;;21.00;39.50;;;;;;5053019;28;20429;-68
2021/09/30 12:19:59;;;;;;;4.70;0.80;;;21.00;39.70;;;;;;5053710;28;20017;-66
2021/09/30 12:22:34;;;;;;;1.58;0.60;;;20.90;38.40;;;;;;5066217;28;20482;-67
2021/09/30 12:25:05;;;;;;;1.55;0.60;;;21.00;38.90;;;;;;5071870;28;20067;-67
2021/09/30 12:27:34;;;;;;;1.60;0.50;;;21.00;39.10;;;;;;5068247;28;20087;-67
2021/09/30 12:30:13;;;;;;;3.15;0.80;;;21.00;39.80;;;;;;5053450;28;20502;-67
2021/09/30 12:32:42;;;;;;;2.55;1.00;;;21.10;39.70;;;;;;5053396;28;20100;-67
2021/09/30 12:35:11;;;;;;;1.25;0.57;;;21.10;39.20;;;;;;5062969;28;20025;-67
2021/09/30 12:37:40;;;;;;;1.85;0.70;;;21.10;38.90;;;;;;5073335;28;20028;-64
2021/09/30 12:40:10;;;;;;;1.27;0.70;;;21.10;38.40;;;;;;5073193;28;20082;-64
2021/09/30 12:42:37;;;;;;;1.30;0.70;;;21.10;38.30;;;;;;5073088;28;20048;-64
2021/09/30 12:45:14;;;;;;;5.25;1.42;;;21.10;37.70;;;;;;5062150;28;20454;-64
2021/09/30 12:47:42;;;;;;;1.45;0.40;;;21.00;36.90;;;;;;5053107;28;20025;-64
2021/09/30 12:50:12;;;;;;;2.28;0.70;;;20.90;37.40;;;;;;5052621;28;20021;-65
2021/09/30 12:52:39;;;;;;;2.67;0.65;;;20.90;37.00;;;;;;5058294;28;20104;-64
2021/09/30 12:55:26;;;;;;;2.13;0.60;;;20.80;37.20;;;;;;5065916;28;20025;-64
2021/09/30 12:57:53;;;;;;;2.88;0.70;;;20.70;37.10;;;;;;5058913;28;20486;-65
2021/09/30 13:00:20;;;;;;;1.85;0.60;;;20.70;36.10;;;;;;5057881;28;20059;-64
2021/09/30 13:02:48;;;;;;;6.15;1.35;;;20.60;35.50;;;;;;5051964;28;20068;-64
2021/09/30 13:05:15;;;;;;;3.83;0.82;;;20.60;36.60;;;;;;5052733;28;20039;-64
2021/09/30 13:08:03;;;;;;;4.45;0.63;;;20.50;37.30;;;;;;5071874;28;20025;-64
2021/09/30 13:10:34;;;;;;;2.28;0.88;;;20.50;37.00;;;;;;5056907;28;20028;-64
2021/09/30 13:13:29;;;;;;;1.55;0.60;;;20.50;37.50;;;;;;5052541;28;20108;-65
2021/09/30 13:15:54;;;;;;;0.70;0.47;;;20.50;37.60;;;;;;5052115;28;20029;-64
2021/09/30 13:18:22;;;;;;;3.30;0.70;;;20.50;37.50;;;;;;5062610;28;20016;-64
2021/09/30 13:21:07;;;;;;;1.20;0.50;;;20.50;38.00;;;;;;5057469;28;20017;-64
2021/09/30 13:23:33;;;;;;;2.20;0.60;;;20.50;37.90;;;;;;5052259;28;20032;-65
2021/09/30 13:25:58;;;;;;;1.40;0.60;;;20.50;37.70;;;;;;5051890;28;20494;-64
2021/09/30 13:28:24;;;;;;;2.13;0.60;;;20.50;38.00;;;;;;5056251;28;20482;-64
2021/09/30 13:30:50;;;;;;;2.78;0.60;;;20.50;38.10;;;;;;5060557;28;20029;-64
2021/09/30 13:33:15;;;;;;;5.18;0.70;;;20.50;38.40;;;;;;5051927;28;20036;-64
2021/09/30 13:35:41;;;;;;;1.10;0.40;;;20.50;38.30;;;;;;5051837;28;20028;-64
2021/09/30 13:38:07;;;;;;;2.97;0.60;;;20.50;38.90;;;;;;5052096;28;20507;-64
2021/09/30 13:40:33;;;;;;;2.20;0.63;;;20.60;38.50;;;;;;5051579;28;20041;-64
2021/09/30 13:43:01;;;;;;;1.55;0.50;;;20.60;38.60;;;;;;5050322;28;20393;-64
2021/09/30 13:45:27;;;;;;;3.58;0.85;;;20.60;38.70;;;;;;5051687;28;20596;-64
2021/09/30 13:47:54;;;;;;;3.63;0.70;;;20.70;38.10;;;;;;5051485;28;20108;-64
2021/09/30 13:50:24;;;;;;;2.42;0.65;;;20.80;38.10;;;;;;5051467;28;20111;-64
2021/09/30 13:52:52;;;;;;;4.25;1.15;;;20.90;38.50;;;;;;5051900;28;20055;-64
2021/09/30 13:55:20;;;;;;;1.67;0.50;;;21.00;37.60;;;;;;5051393;28;20359;-69
2021/09/30 13:57:46;;;;;;;4.43;1.08;;;21.00;37.30;;;;;;5051193;28;20051;-65
2021/09/30 14:00:13;;;;;;;4.10;1.10;;;21.10;38.00;;;;;;5051693;28;20493;-64
2021/09/30 14:02:41;;;;;;;1.05;0.68;;;21.10;38.20;;;;;;5050897;28;20148;-64
2021/09/30 14:05:09;;;;;;;3.92;0.70;;;21.20;36.70;;;;;;5051270;28;20028;-64
2021/09/30 14:07:35;;;;;;;5.03;0.90;;;21.20;36.40;;;;;;5069943;28;20044;-64
2021/09/30 14:10:06;;;;;;;0.95;0.50;;;21.20;36.50;;;;;;5071302;28;20150;-64
2021/09/30 14:12:32;;;;;;;4.85;0.88;;;21.30;36.80;;;;;;5071154;28;20031;-64
2021/09/30 14:14:58;;;;;;;1.50;0.55;;;21.40;37.00;;;;;;5071177;28;20021;-64
2021/09/30 14:17:24;;;;;;;1.55;0.77;;;21.40;36.30;;;;;;5068089;28;20025;-64
2021/09/30 14:19:50;;;;;;;3.05;0.77;;;21.40;36.70;;;;;;5071209;28;20406;-64
2021/09/30 14:22:16;;;;;;;2.00;0.70;;;21.40;36.60;;;;;;5071274;28;20048;-64
2021/09/30 14:24:42;;;;;;;6.25;1.25;;;21.50;36.80;;;;;;5071327;28;20021;-64
2021/09/30 14:27:08;;;;;;;2.08;0.80;;;21.60;37.20;;;;;;5070979;28;20441;-64
2021/09/30 14:29:41;;;;;;;2.70;0.80;;;21.80;36.90;;;;;;5069583;28;20032;-65
2021/09/30 14:32:08;;;;;;;1.80;0.68;;;22.00;36.70;;;;;;5071445;28;20024;-64
2021/09/30 14:34:34;;;;;;;2.60;0.60;;;22.20;36.60;;;;;;5071077;28;20028;-64
2021/09/30 14:37:00;;;;;;;3.13;0.90;;;22.40;36.30;;;;;;5070886;28;20361;-64
2021/09/30 14:39:25;;;;;;;4.72;0.90;;;22.60;35.90;;;;;;5070691;28;20439;-64
2021/09/30 14:41:51;;;;;;;4.70;0.98;;;22.80;34.80;;;;;;5055123;28;20108;-66
2021/09/30 14:44:21;;;;;;;5.75;1.23;;;22.90;34.10;;;;;;5050968;28;20021;-66
2021/09/30 14:46:47;;;;;;;5.45;1.10;;;22.90;33.00;;;;;;5050891;28;20049;-64
2021/09/30 14:49:12;;;;;;;3.95;1.20;;;22.90;33.10;;;;;;5051018;28;20056;-64
2021/09/30 14:51:38;;;;;;;6.10;0.90;;;22.90;33.00;;;;;;5050600;28;20029;-64
2021/09/30 14:54:04;;;;;;;3.13;0.93;;;22.90;33.30;;;;;;5049665;28;20398;-64
2021/09/30 14:56:30;;;;;;;2.53;0.73;;;22.80;34.10;;;;;;5050707;28;20013;-63
2021/09/30 14:58:56;;;;;;;2.72;0.80;;;22.80;34.70;;;;;;5050794;28;20021;-64
2021/09/30 15:01:22;;;;;;;4.15;1.00;;;22.70;34.60;;;;;;5050747;28;20025;-64
2021/09/30 15:03:48;;;;;;;1.63;0.88;;;22.50;34.90;;;;;;5051431;28;20100;-64
2021/09/30 15:06:14;;;;;;;4.43;1.05;;;22.50;35.20;;;;;;5060988;28;20029;-64
2021/09/30 15:08:40;;;;;;;2.25;0.70;;;22.40;35.60;;;;;;5050735;28;20025;-63
2021/09/30 15:11:06;;;;;;;4.35;0.93;;;22.30;36.00;;;;;;5050542;28;20124;-65
2021/09/30 15:13:32;;;;;;;2.55;1.30;;;22.30;35.80;;;;;;5050421;28;20029;-64
2021/09/30 15:15:59;;;;;;;3.47;1.00;;;22.20;35.80;;;;;;5050592;28;20107;-64
2021/09/30 15:18:49;;;;;;;2.63;0.82;;;22.30;36.30;;;;;;5058023;28;20057;-65
2021/09/30 15:21:24;;;;;;;2.92;1.00;;;22.50;36.60;;;;;;5070365;28;20033;-64
2021/09/30 15:23:56;;;;;;;3.22;0.80;;;22.90;36.60;;;;;;5070220;28;20482;-64
2021/09/30 15:26:24;;;;;;;3.25;0.80;;;23.20;36.40;;;;;;5074612;28;20029;-64
2021/09/30 15:28:51;;;;;;;3.55;0.90;;;23.70;36.40;;;;;;5074412;28;20525;-65
2021/09/30 15:31:18;;;;;;;2.47;0.70;;;24.10;34.50;;;;;;5072450;28;20021;-65
2021/09/30 15:33:45;;;;;;;1.95;0.90;;;24.40;33.80;;;;;;5073988;28;20052;-65
2021/09/30 15:36:11;;;;;;;1.73;0.70;;;24.60;32.50;;;;;;5074075;28;20052;-65
2021/09/30 15:38:41;;;;;;;2.10;0.90;;;24.70;32.10;;;;;;5074472;28;20024;-65
2021/09/30 15:41:08;;;;;;;5.13;0.90;;;24.60;32.30;;;;;;5057992;28;20062;-65
2021/09/30 15:43:33;;;;;;;7.38;0.88;;;24.50;32.30;;;;;;5054741;28;20021;-65
2021/09/30 15:46:01;;;;;;;3.28;1.00;;;24.20;32.40;;;;;;5053543;28;20041;-65
2021/09/30 15:48:28;;;;;;;6.47;0.98;;;24.00;32.60;;;;;;5062374;28;20021;-66
2021/09/30 15:50:54;;;;;;;2.05;0.85;;;23.80;32.80;;;;;;5069180;28;20392;-65
2021/09/30 15:53:20;;;;;;;1.75;0.77;;;23.50;32.80;;;;;;5054922;28;20058;-66